Triton Leader — 3FFE9 — position and weather

sailwx.info

Track history (hours):
 
Tides and Currents Weather Stations Pressure Air Temp Water Temp Dewpoint Dewpoint Depression Visibility Wind Speed Wind Dir Waves Ship Positions

Triton Leader

Last reported at 2018-Feb-24 03:22 UTC. Time now 2018-Feb-25 23:46 UTC.
Position N 34°22' E 140°18'.

Length 199 m; draft 9 m.

Type: Ship. MMSI: 357795000.

Date/timePositionNaut miles runAvg speedWind from/ knotsBaromVisibWave heightAir tempDewpointWater temp
2018-Feb-24 03:22N 34°22' E 140°18'2017.1
2018-Feb-24 02:13N 34°11' E 139°58'917.1
2018-Feb-24 01:40N 34°06' E 139°48'22215.9
2018-Feb-23 11:43N 33°21' E 135°27'816.8
2018-Feb-23 11:14N 33°26' E 135°20'616.7
2018-Feb-23 10:54N 33°29' E 135°15'817.4
2018-Feb-23 10:28N 33°35' E 135°08'817.2
2018-Feb-23 10:00N 33°41' E 135°02'817.3
2018-Feb-23 09:30N 33°49' E 134°58'917.3
2018-Feb-23 09:00N 33°57' E 134°57'917.6
2018-Feb-23 08:30N 34°06' E 134°58'714.0
2018-Feb-23 08:00N 34°13' E 134°58'611.5
2018-Feb-23 07:31N 34°19' E 134°59'815.4
2018-Feb-23 07:01N 34°26' E 135°02'815.3
2018-Feb-23 06:30N 34°33' E 135°07'4 7.3
2018-Feb-23 06:00N 34°35' E 135°04'5 9.6
2018-Feb-23 05:30N 34°37' E 134°58'4 9.0
2018-Feb-23 05:01N 34°37' E 134°53'5 9.6
2018-Feb-23 04:30N 34°40' E 134°48'4 7.0
2018-Feb-23 04:00N 34°43' E 134°51'0 0.1
2018-Feb-23 03:28N 34°43' E 134°51'0 0.0
2018-Feb-23 03:00N 34°43' E 134°51'0 0.0
2018-Feb-23 02:27N 34°43' E 134°51'0 0.0
2018-Feb-23 02:00N 34°43' E 134°51'0 0.0
2018-Feb-23 01:30N 34°43' E 134°51'0 0.0
2018-Feb-23 01:00N 34°43' E 134°51'0 0.0
2018-Feb-23 00:30N 34°43' E 134°51'0 0.0
2018-Feb-23 00:00N 34°43' E 134°51'0 0.0
2018-Feb-22 23:30N 34°43' E 134°51'0 0.7
2018-Feb-22 23:00N 34°43' E 134°51'3 5.4
2018-Feb-22 22:30N 34°41' E 134°48'1 2.3
2018-Feb-22 21:59N 34°40' E 134°49'0 0.1
2018-Feb-22 21:26N 34°40' E 134°49'0 0.0
2018-Feb-22 20:59N 34°40' E 134°49'0 0.0
2018-Feb-22 20:29N 34°40' E 134°49'0 0.0
2018-Feb-22 19:59N 34°40' E 134°49'0 0.1
2018-Feb-22 19:29N 34°40' E 134°49'0 0.1
2018-Feb-22 18:59N 34°40' E 134°49'0 0.1
2018-Feb-22 18:29N 34°40' E 134°49'0 0.1
2018-Feb-22 17:59N 34°40' E 134°49'0 0.0
2018-Feb-22 17:29N 34°40' E 134°49'0 0.0
2018-Feb-22 16:59N 34°40' E 134°49'0 0.0
2018-Feb-22 16:29N 34°40' E 134°49'0 0.0
2018-Feb-22 15:59N 34°40' E 134°49'0 0.0
2018-Feb-22 15:29N 34°40' E 134°49'0 0.0
2018-Feb-22 14:59N 34°40' E 134°49'0 0.0
2018-Feb-22 14:29N 34°40' E 134°49'0 0.0
2018-Feb-22 13:59N 34°40' E 134°49'0 0.1
2018-Feb-22 13:29N 34°40' E 134°49'0 0.1
2018-Feb-22 12:56N 34°40' E 134°49'0 0.0
2018-Feb-22 12:29N 34°40' E 134°49'0 0.0
2018-Feb-22 11:59N 34°40' E 134°49'0 0.0
2018-Feb-22 11:29N 34°40' E 134°49'0 0.0
2018-Feb-22 10:59N 34°40' E 134°49'0 0.1
2018-Feb-22 10:30N 34°39' E 134°49'4 8.8
2018-Feb-22 10:00N 34°37' E 134°54'611.8
2018-Feb-22 09:30N 34°38' E 135°01'510.4
2018-Feb-22 09:00N 34°35' E 135°07'3 5.6
2018-Feb-22 08:30N 34°33' E 135°08'511.0
2018-Feb-22 08:00N 34°28' E 135°05'714.5
2018-Feb-22 07:30N 34°21' E 135°01'714.8
2018-Feb-22 07:00N 34°14' E 134°59'510.6
2018-Feb-22 06:30N 34°09' E 134°59'2 3.9
2018-Feb-22 06:00N 34°07' E 134°59'0 0.4
2018-Feb-22 05:30N 34°07' E 134°59'3 5.4
2018-Feb-22 05:00N 34°05' E 134°57'611.4
2018-Feb-22 04:30N 33°59' E 134°58'713.2
2018-Feb-22 04:00N 33°52' E 134°57'713.2
2018-Feb-22 03:30N 33°46' E 134°60'713.7
2018-Feb-22 03:00N 33°40' E 135°03'713.2
2018-Feb-22 02:28N 33°35' E 135°09'813.7
2018-Feb-22 01:53N 33°30' E 135°17'613.7
2018-Feb-22 01:26N 33°27' E 135°23'17416.3
2018-Feb-21 14:49N 34°01' E 138°48'515.4
2018-Feb-21 14:30N 34°02' E 138°54'1415.2
2018-Feb-21 13:36N 34°06' E 139°10'514.4
2018-Feb-21 13:17N 34°07' E 139°15'413.3
2018-Feb-21 12:58N 34°10' E 139°19'1216.4
2018-Feb-21 12:15N 34°21' E 139°24'516.5
2018-Feb-21 11:57N 34°25' E 139°27'715.7
2018-Feb-21 11:30N 34°32' E 139°29'815.4
2018-Feb-21 11:00N 34°39' E 139°32'916.3
2018-Feb-21 10:29N 34°48' E 139°35'816.3
2018-Feb-21 09:59N 34°55' E 139°37'715.6
2018-Feb-21 09:30N 35°02' E 139°41'815.5
2018-Feb-21 09:00N 35°09' E 139°45'611.1
2018-Feb-21 08:30N 35°15' E 139°46'612.2
2018-Feb-21 08:00N 35°20' E 139°43'612.3
2018-Feb-21 07:31N 35°26' E 139°44'4 7.8
2018-Feb-21 07:01N 35°29' E 139°46'0 0.2
2018-Feb-21 06:26N 35°30' E 139°46'0 0.0
2018-Feb-21 05:59N 35°30' E 139°46'0 0.0
2018-Feb-21 05:29N 35°30' E 139°46'0 0.0
2018-Feb-21 04:59N 35°30' E 139°46'0 0.0
2018-Feb-21 04:29N 35°30' E 139°46'0 0.0
2018-Feb-21 03:59N 35°30' E 139°46'0 0.0
2018-Feb-21 03:30N 35°30' E 139°46'0 0.0
2018-Feb-21 03:00N 35°30' E 139°46'0 0.0
2018-Feb-21 02:30N 35°30' E 139°46'0 0.0
2018-Feb-21 02:00N 35°30' E 139°46'0 0.0
2018-Feb-21 01:30N 35°30' E 139°46'0 0.0
2018-Feb-21 01:01N 35°30' E 139°46'0 0.0
2018-Feb-21 00:30N 35°30' E 139°46'0 0.0
2018-Feb-21 00:00N 35°30' E 139°46'0 0.0
2018-Feb-20 23:30N 35°30' E 139°46'0 0.0
2018-Feb-20 23:00N 35°30' E 139°46'0 0.0
2018-Feb-20 22:30N 35°30' E 139°46'0 0.0
2018-Feb-20 22:01N 35°30' E 139°46'0 0.0
2018-Feb-20 21:30N 35°30' E 139°46'0 0.0
2018-Feb-20 21:00N 35°30' E 139°46'0 0.0
2018-Feb-20 20:30N 35°30' E 139°46'0 0.0
2018-Feb-20 20:00N 35°30' E 139°46'0 0.0
2018-Feb-20 19:30N 35°30' E 139°46'0 0.0
2018-Feb-20 19:00N 35°30' E 139°46'0 0.0
2018-Feb-20 18:30N 35°30' E 139°46'0 0.0
2018-Feb-20 18:00N 35°30' E 139°46'0 0.0
2018-Feb-20 17:30N 35°30' E 139°46'0 0.0
2018-Feb-20 17:00N 35°30' E 139°46'0 0.0
2018-Feb-20 16:30N 35°30' E 139°46'0 0.0
2018-Feb-20 16:00N 35°30' E 139°46'0 0.0
2018-Feb-20 15:30N 35°30' E 139°46'0 0.0
2018-Feb-20 15:01N 35°30' E 139°46'0 0.0
2018-Feb-20 14:30N 35°30' E 139°46'0 0.0
2018-Feb-20 14:00N 35°30' E 139°46'0 0.0
2018-Feb-20 13:31N 35°30' E 139°46'0 0.0
2018-Feb-20 13:00N 35°30' E 139°46'0 0.0
2018-Feb-20 12:30N 35°30' E 139°46'0 0.0
2018-Feb-20 12:00N 35°30' E 139°46'0 0.0
2018-Feb-20 11:30N 35°30' E 139°46'0 0.0
2018-Feb-20 11:00N 35°30' E 139°46'0 0.0
2018-Feb-20 10:30N 35°30' E 139°46'0 0.0
2018-Feb-20 10:00N 35°30' E 139°46'0 0.0
2018-Feb-20 09:30N 35°30' E 139°46'0 0.0
2018-Feb-20 09:00N 35°30' E 139°46'0 0.0
2018-Feb-20 08:30N 35°30' E 139°46'0 0.0
2018-Feb-20 08:00N 35°30' E 139°46'0 0.0
2018-Feb-20 07:30N 35°30' E 139°46'0 0.0
2018-Feb-20 07:00N 35°30' E 139°46'0 0.0
2018-Feb-20 06:31N 35°30' E 139°46'0 0.0
2018-Feb-20 06:00N 35°30' E 139°46'0 0.0
2018-Feb-20 05:30N 35°30' E 139°46'0 0.0
2018-Feb-20 05:00N 35°30' E 139°46'0 0.0
2018-Feb-20 04:30N 35°30' E 139°46'0 0.0
2018-Feb-20 04:00N 35°30' E 139°46'0 0.0
2018-Feb-20 03:30N 35°30' E 139°46'0 0.0
2018-Feb-20 03:00N 35°30' E 139°46'0 0.0
2018-Feb-20 02:30N 35°30' E 139°46'0 0.0
2018-Feb-20 02:00N 35°30' E 139°46'0 0.0
2018-Feb-20 01:30N 35°30' E 139°46'0 0.0
2018-Feb-20 01:01N 35°30' E 139°46'0 0.0
2018-Feb-20 00:30N 35°30' E 139°46'0 0.0
2018-Feb-20 00:00N 35°30' E 139°46'0 0.0
2018-Feb-19 23:30N 35°30' E 139°46'0 0.0
2018-Feb-19 23:00N 35°30' E 139°46'0 0.0
2018-Feb-19 22:30N 35°30' E 139°46'1 2.4
2018-Feb-19 22:00N 35°30' E 139°47'5 9.8
2018-Feb-19 21:30N 35°25' E 139°46'612.5
2018-Feb-19 21:00N 35°19' E 139°44'611.9
2018-Feb-19 20:30N 35°14' E 139°47'510.3
2018-Feb-19 20:00N 35°08' E 139°46'510.4
2018-Feb-19 19:29N 35°03' E 139°44'3 6.9
2018-Feb-19 19:00N 35°00' E 139°42'611.1
2018-Feb-19 18:30N 34°55' E 139°39'611.5
2018-Feb-19 17:57N 34°49' E 139°41'612.3
2018-Feb-19 17:26N 34°46' E 139°48'512.1
2018-Feb-19 16:59N 34°47' E 139°54'511.5
2018-Feb-19 16:30N 34°48' E 140°01'611.8
2018-Feb-19 15:59N 34°51' E 140°07'611.7
2018-Feb-19 15:26N 34°54' E 140°14'511.5
2018-Feb-19 15:00N 34°57' E 140°19'612.1
2018-Feb-19 14:29N 35°01' E 140°26'  
2018-Feb-16 21:50N 34°55' E 140°28'1 1.5
2018-Feb-16 21:21N 34°54' E 140°27'1 1.6
2018-Feb-16 21:00N 34°54' E 140°26'3 2.6
2018-Feb-16 19:49N 34°54' E 140°23'2 5.2
2018-Feb-16 19:29N 34°53' E 140°21'613.0
2018-Feb-16 18:59N 34°49' E 140°14'1018.6
2018-Feb-16 18:27N 34°44' E 140°04'918.6
2018-Feb-16 17:59N 34°38' E 139°56'919.1
2018-Feb-16 17:30N 34°32' E 139°47'918.2
2018-Feb-16 17:00N 34°26' E 139°39'917.9
2018-Feb-16 16:30N 34°21' E 139°31'1117.6
2018-Feb-16 15:52N 34°13' E 139°21'616.8
2018-Feb-16 15:30N 34°09' E 139°15'1015.0
2018-Feb-16 14:50N 34°07' E 139°03'617.8
2018-Feb-16 14:29N 34°10' E 138°56'918.0
2018-Feb-16 14:00N 34°14' E 138°47'917.5
2018-Feb-16 13:30N 34°16' E 138°37'918.3
2018-Feb-16 13:00N 34°16' E 138°26'918.1
2018-Feb-16 12:30N 34°16' E 138°15'917.7
2018-Feb-16 12:00N 34°18' E 138°04'816.9
2018-Feb-16 11:30N 34°20' E 137°55'816.4
2018-Feb-16 11:00N 34°22' E 137°45'916.4
2018-Feb-16 10:27N 34°24' E 137°34'716.2
2018-Feb-16 09:59N 34°26' E 137°26'816.5
2018-Feb-16 09:30N 34°28' E 137°16'816.3
2018-Feb-16 09:00N 34°30' E 137°07'611.1
2018-Feb-16 08:30N 34°33' E 137°01'5 9.1
2018-Feb-16 07:58N 34°38' E 136°59'511.5
2018-Feb-16 07:30N 34°41' E 137°04'714.5
2018-Feb-16 07:00N 34°44' E 137°12'4 0.2
2018-Feb-15 07:17N 34°48' E 137°13'3 9.1
2018-Feb-15 06:58N 34°45' E 137°12'511.4
2018-Feb-15 06:30N 34°42' E 137°07'816.1
2018-Feb-15 06:00N 34°39' E 136°58'917.6
2018-Feb-15 05:30N 34°43' E 136°48'917.2
2018-Feb-15 05:00N 34°51' E 136°45'714.5
2018-Feb-15 04:30N 34°58' E 136°48'510.0
2018-Feb-15 04:00N 35°02' E 136°51'0 0.7
2018-Feb-15 03:27N 35°02' E 136°51'0 0.0
2018-Feb-15 02:57N 35°02' E 136°51'0 0.0
2018-Feb-15 02:30N 35°02' E 136°51'0 0.0
2018-Feb-15 01:57N 35°02' E 136°51'0 0.0
2018-Feb-15 01:30N 35°02' E 136°51'0 0.0
2018-Feb-15 01:00N 35°02' E 136°51'0 0.0
2018-Feb-15 00:30N 35°02' E 136°51'0 0.0
2018-Feb-15 00:00N 35°02' E 136°51'0 0.0
2018-Feb-14 23:27N 35°02' E 136°51'0 0.0
2018-Feb-14 22:57N 35°02' E 136°51'0 0.0
2018-Feb-14 22:27N 35°02' E 136°51'0 0.0
2018-Feb-14 21:57N 35°02' E 136°51'0 0.0
2018-Feb-14 21:27N 35°02' E 136°51'0 0.0
2018-Feb-14 20:57N 35°02' E 136°51'0 0.0
2018-Feb-14 20:27N 35°02' E 136°51'0 0.0
2018-Feb-14 19:57N 35°02' E 136°51'0 0.0
2018-Feb-14 19:27N 35°02' E 136°51'0 0.0
2018-Feb-14 18:57N 35°02' E 136°51'0 0.0
2018-Feb-14 18:27N 35°02' E 136°51'0 0.0
2018-Feb-14 17:57N 35°02' E 136°51'0 0.0
2018-Feb-14 17:27N 35°02' E 136°51'0 0.0
2018-Feb-14 16:57N 35°02' E 136°51'0 0.0
2018-Feb-14 16:27N 35°02' E 136°51'0 0.0
2018-Feb-14 15:57N 35°02' E 136°51'0 0.0
2018-Feb-14 15:27N 35°02' E 136°51'0 0.0
2018-Feb-14 14:57N 35°02' E 136°51'0 0.0
2018-Feb-14 14:15N 35°02' E 136°51'0 0.0
2018-Feb-14 14:00N 35°02' E 136°51'0 0.0
2018-Feb-14 13:27N 35°02' E 136°51'0 0.0
2018-Feb-14 12:57N 35°02' E 136°51'0 0.0
2018-Feb-14 12:27N 35°02' E 136°51'0 0.0
2018-Feb-14 11:57N 35°02' E 136°51'0 0.0
2018-Feb-14 11:27N 35°02' E 136°51'0 0.0
2018-Feb-14 11:00N 35°02' E 136°51'0 0.0
2018-Feb-14 10:27N 35°02' E 136°51'0 0.0
2018-Feb-14 09:57N 35°02' E 136°51'0 0.0
2018-Feb-14 09:27N 35°02' E 136°51'0 0.0
2018-Feb-14 08:57N 35°02' E 136°51'0 0.0
2018-Feb-14 08:27N 35°02' E 136°51'0 0.0
2018-Feb-14 07:57N 35°02' E 136°51'0 0.0
2018-Feb-14 07:29N 35°02' E 136°51'0 0.0
2018-Feb-14 06:59N 35°02' E 136°51'0 0.0
2018-Feb-14 06:30N 35°02' E 136°51'0 0.0
2018-Feb-14 06:00N 35°02' E 136°51'2 3.5
2018-Feb-14 05:31N 35°01' E 136°50'611.8
2018-Feb-14 05:00N 34°56' E 136°46'713.5
2018-Feb-14 04:31N 34°49' E 136°46'917.6
2018-Feb-14 04:00N 34°41' E 136°51'816.5
2018-Feb-14 03:30N 34°35' E 136°58'  
Track history (hours):
 
Tides and Currents Weather Stations Pressure Air Temp Water Temp Dewpoint Dewpoint Depression Visibility Wind Speed Wind Dir Waves Ship Positions

Triton Leader

Last reported at 2018-Feb-24 03:22 UTC. Time now 2018-Feb-25 23:46 UTC.
Position N 34°22' E 140°18'.

Length 199 m; draft 9 m.

Type: Ship. MMSI: 357795000.

Date/timePositionNaut miles runAvg speedWind from/ knotsBaromVisibWave heightAir tempDewpointWater temp
2018-Feb-24 03:22N 34°22' E 140°18'2017.1
2018-Feb-24 02:13N 34°11' E 139°58'917.1
2018-Feb-24 01:40N 34°06' E 139°48'22215.9
2018-Feb-23 11:43N 33°21' E 135°27'816.8
2018-Feb-23 11:14N 33°26' E 135°20'616.7
2018-Feb-23 10:54N 33°29' E 135°15'817.4
2018-Feb-23 10:28N 33°35' E 135°08'817.2
2018-Feb-23 10:00N 33°41' E 135°02'817.3
2018-Feb-23 09:30N 33°49' E 134°58'917.3
2018-Feb-23 09:00N 33°57' E 134°57'917.6
2018-Feb-23 08:30N 34°06' E 134°58'714.0
2018-Feb-23 08:00N 34°13' E 134°58'611.5
2018-Feb-23 07:31N 34°19' E 134°59'815.4
2018-Feb-23 07:01N 34°26' E 135°02'815.3
2018-Feb-23 06:30N 34°33' E 135°07'4 7.3
2018-Feb-23 06:00N 34°35' E 135°04'5 9.6
2018-Feb-23 05:30N 34°37' E 134°58'4 9.0
2018-Feb-23 05:01N 34°37' E 134°53'5 9.6
2018-Feb-23 04:30N 34°40' E 134°48'4 7.0
2018-Feb-23 04:00N 34°43' E 134°51'0 0.1
2018-Feb-23 03:28N 34°43' E 134°51'0 0.0
2018-Feb-23 03:00N 34°43' E 134°51'0 0.0
2018-Feb-23 02:27N 34°43' E 134°51'0 0.0
2018-Feb-23 02:00N 34°43' E 134°51'0 0.0
2018-Feb-23 01:30N 34°43' E 134°51'0 0.0
2018-Feb-23 01:00N 34°43' E 134°51'0 0.0
2018-Feb-23 00:30N 34°43' E 134°51'0 0.0
2018-Feb-23 00:00N 34°43' E 134°51'0 0.0
2018-Feb-22 23:30N 34°43' E 134°51'0 0.7
2018-Feb-22 23:00N 34°43' E 134°51'3 5.4
2018-Feb-22 22:30N 34°41' E 134°48'1 2.3
2018-Feb-22 21:59N 34°40' E 134°49'0 0.1
2018-Feb-22 21:26N 34°40' E 134°49'0 0.0
2018-Feb-22 20:59N 34°40' E 134°49'0 0.0
2018-Feb-22 20:29N 34°40' E 134°49'0 0.0
2018-Feb-22 19:59N 34°40' E 134°49'0 0.1
2018-Feb-22 19:29N 34°40' E 134°49'0 0.1
2018-Feb-22 18:59N 34°40' E 134°49'0 0.1
2018-Feb-22 18:29N 34°40' E 134°49'0 0.1
2018-Feb-22 17:59N 34°40' E 134°49'0 0.0
2018-Feb-22 17:29N 34°40' E 134°49'0 0.0
2018-Feb-22 16:59N 34°40' E 134°49'0 0.0
2018-Feb-22 16:29N 34°40' E 134°49'0 0.0
2018-Feb-22 15:59N 34°40' E 134°49'0 0.0
2018-Feb-22 15:29N 34°40' E 134°49'0 0.0
2018-Feb-22 14:59N 34°40' E 134°49'0 0.0
2018-Feb-22 14:29N 34°40' E 134°49'0 0.0
2018-Feb-22 13:59N 34°40' E 134°49'0 0.1
2018-Feb-22 13:29N 34°40' E 134°49'0 0.1
2018-Feb-22 12:56N 34°40' E 134°49'0 0.0
2018-Feb-22 12:29N 34°40' E 134°49'0 0.0
2018-Feb-22 11:59N 34°40' E 134°49'0 0.0
2018-Feb-22 11:29N 34°40' E 134°49'0 0.0
2018-Feb-22 10:59N 34°40' E 134°49'0 0.1
2018-Feb-22 10:30N 34°39' E 134°49'4 8.8
2018-Feb-22 10:00N 34°37' E 134°54'611.8
2018-Feb-22 09:30N 34°38' E 135°01'510.4
2018-Feb-22 09:00N 34°35' E 135°07'3 5.6
2018-Feb-22 08:30N 34°33' E 135°08'511.0
2018-Feb-22 08:00N 34°28' E 135°05'714.5
2018-Feb-22 07:30N 34°21' E 135°01'714.8
2018-Feb-22 07:00N 34°14' E 134°59'510.6
2018-Feb-22 06:30N 34°09' E 134°59'2 3.9
2018-Feb-22 06:00N 34°07' E 134°59'0 0.4
2018-Feb-22 05:30N 34°07' E 134°59'3 5.4
2018-Feb-22 05:00N 34°05' E 134°57'611.4
2018-Feb-22 04:30N 33°59' E 134°58'713.2
2018-Feb-22 04:00N 33°52' E 134°57'713.2
2018-Feb-22 03:30N 33°46' E 134°60'713.7
2018-Feb-22 03:00N 33°40' E 135°03'713.2
2018-Feb-22 02:28N 33°35' E 135°09'813.7
2018-Feb-22 01:53N 33°30' E 135°17'613.7
2018-Feb-22 01:26N 33°27' E 135°23'17416.3
2018-Feb-21 14:49N 34°01' E 138°48'515.4
2018-Feb-21 14:30N 34°02' E 138°54'1415.2
2018-Feb-21 13:36N 34°06' E 139°10'514.4
2018-Feb-21 13:17N 34°07' E 139°15'413.3
2018-Feb-21 12:58N 34°10' E 139°19'1216.4
2018-Feb-21 12:15N 34°21' E 139°24'516.5
2018-Feb-21 11:57N 34°25' E 139°27'715.7
2018-Feb-21 11:30N 34°32' E 139°29'815.4
2018-Feb-21 11:00N 34°39' E 139°32'916.3
2018-Feb-21 10:29N 34°48' E 139°35'816.3
2018-Feb-21 09:59N 34°55' E 139°37'715.6
2018-Feb-21 09:30N 35°02' E 139°41'815.5
2018-Feb-21 09:00N 35°09' E 139°45'611.1
2018-Feb-21 08:30N 35°15' E 139°46'612.2
2018-Feb-21 08:00N 35°20' E 139°43'612.3
2018-Feb-21 07:31N 35°26' E 139°44'4 7.8
2018-Feb-21 07:01N 35°29' E 139°46'0 0.2
2018-Feb-21 06:26N 35°30' E 139°46'0 0.0
2018-Feb-21 05:59N 35°30' E 139°46'0 0.0
2018-Feb-21 05:29N 35°30' E 139°46'0 0.0
2018-Feb-21 04:59N 35°30' E 139°46'0 0.0
2018-Feb-21 04:29N 35°30' E 139°46'0 0.0
2018-Feb-21 03:59N 35°30' E 139°46'0 0.0
2018-Feb-21 03:30N 35°30' E 139°46'0 0.0
2018-Feb-21 03:00N 35°30' E 139°46'0 0.0
2018-Feb-21 02:30N 35°30' E 139°46'0 0.0
2018-Feb-21 02:00N 35°30' E 139°46'0 0.0
2018-Feb-21 01:30N 35°30' E 139°46'0 0.0
2018-Feb-21 01:01N 35°30' E 139°46'0 0.0
2018-Feb-21 00:30N 35°30' E 139°46'0 0.0
2018-Feb-21 00:00N 35°30' E 139°46'0 0.0
2018-Feb-20 23:30N 35°30' E 139°46'0 0.0
2018-Feb-20 23:00N 35°30' E 139°46'0 0.0
2018-Feb-20 22:30N 35°30' E 139°46'0 0.0
2018-Feb-20 22:01N 35°30' E 139°46'0 0.0
2018-Feb-20 21:30N 35°30' E 139°46'0 0.0
2018-Feb-20 21:00N 35°30' E 139°46'0 0.0
2018-Feb-20 20:30N 35°30' E 139°46'0 0.0
2018-Feb-20 20:00N 35°30' E 139°46'0 0.0
2018-Feb-20 19:30N 35°30' E 139°46'0 0.0
2018-Feb-20 19:00N 35°30' E 139°46'0 0.0
2018-Feb-20 18:30N 35°30' E 139°46'0 0.0
2018-Feb-20 18:00N 35°30' E 139°46'0 0.0
2018-Feb-20 17:30N 35°30' E 139°46'0 0.0
2018-Feb-20 17:00N 35°30' E 139°46'0 0.0
2018-Feb-20 16:30N 35°30' E 139°46'0 0.0
2018-Feb-20 16:00N 35°30' E 139°46'0 0.0
2018-Feb-20 15:30N 35°30' E 139°46'0 0.0
2018-Feb-20 15:01N 35°30' E 139°46'0 0.0
2018-Feb-20 14:30N 35°30' E 139°46'0 0.0
2018-Feb-20 14:00N 35°30' E 139°46'0 0.0
2018-Feb-20 13:31N 35°30' E 139°46'0 0.0
2018-Feb-20 13:00N 35°30' E 139°46'0 0.0
2018-Feb-20 12:30N 35°30' E 139°46'0 0.0
2018-Feb-20 12:00N 35°30' E 139°46'0 0.0
2018-Feb-20 11:30N 35°30' E 139°46'0 0.0
2018-Feb-20 11:00N 35°30' E 139°46'0 0.0
2018-Feb-20 10:30N 35°30' E 139°46'0 0.0
2018-Feb-20 10:00N 35°30' E 139°46'0 0.0
2018-Feb-20 09:30N 35°30' E 139°46'0 0.0
2018-Feb-20 09:00N 35°30' E 139°46'0 0.0
2018-Feb-20 08:30N 35°30' E 139°46'0 0.0
2018-Feb-20 08:00N 35°30' E 139°46'0 0.0
2018-Feb-20 07:30N 35°30' E 139°46'0 0.0
2018-Feb-20 07:00N 35°30' E 139°46'0 0.0
2018-Feb-20 06:31N 35°30' E 139°46'0 0.0
2018-Feb-20 06:00N 35°30' E 139°46'0 0.0
2018-Feb-20 05:30N 35°30' E 139°46'0 0.0
2018-Feb-20 05:00N 35°30' E 139°46'0 0.0
2018-Feb-20 04:30N 35°30' E 139°46'0 0.0
2018-Feb-20 04:00N 35°30' E 139°46'0 0.0
2018-Feb-20 03:30N 35°30' E 139°46'0 0.0
2018-Feb-20 03:00N 35°30' E 139°46'0 0.0
2018-Feb-20 02:30N 35°30' E 139°46'0 0.0
2018-Feb-20 02:00N 35°30' E 139°46'0 0.0
2018-Feb-20 01:30N 35°30' E 139°46'0 0.0
2018-Feb-20 01:01N 35°30' E 139°46'0 0.0
2018-Feb-20 00:30N 35°30' E 139°46'0 0.0
2018-Feb-20 00:00N 35°30' E 139°46'0 0.0
2018-Feb-19 23:30N 35°30' E 139°46'0 0.0
2018-Feb-19 23:00N 35°30' E 139°46'0 0.0
2018-Feb-19 22:30N 35°30' E 139°46'1 2.4
2018-Feb-19 22:00N 35°30' E 139°47'5 9.8
2018-Feb-19 21:30N 35°25' E 139°46'612.5
2018-Feb-19 21:00N 35°19' E 139°44'611.9
2018-Feb-19 20:30N 35°14' E 139°47'510.3
2018-Feb-19 20:00N 35°08' E 139°46'510.4
2018-Feb-19 19:29N 35°03' E 139°44'3 6.9
2018-Feb-19 19:00N 35°00' E 139°42'611.1
2018-Feb-19 18:30N 34°55' E 139°39'611.5
2018-Feb-19 17:57N 34°49' E 139°41'612.3
2018-Feb-19 17:26N 34°46' E 139°48'512.1
2018-Feb-19 16:59N 34°47' E 139°54'511.5
2018-Feb-19 16:30N 34°48' E 140°01'611.8
2018-Feb-19 15:59N 34°51' E 140°07'611.7
2018-Feb-19 15:26N 34°54' E 140°14'511.5
2018-Feb-19 15:00N 34°57' E 140°19'612.1
2018-Feb-19 14:29N 35°01' E 140°26'  
2018-Feb-16 21:50N 34°55' E 140°28'1 1.5
2018-Feb-16 21:21N 34°54' E 140°27'1 1.6
2018-Feb-16 21:00N 34°54' E 140°26'3 2.6
2018-Feb-16 19:49N 34°54' E 140°23'2 5.2
2018-Feb-16 19:29N 34°53' E 140°21'613.0
2018-Feb-16 18:59N 34°49' E 140°14'1018.6
2018-Feb-16 18:27N 34°44' E 140°04'918.6
2018-Feb-16 17:59N 34°38' E 139°56'919.1
2018-Feb-16 17:30N 34°32' E 139°47'918.2
2018-Feb-16 17:00N 34°26' E 139°39'917.9
2018-Feb-16 16:30N 34°21' E 139°31'1117.6
2018-Feb-16 15:52N 34°13' E 139°21'616.8
2018-Feb-16 15:30N 34°09' E 139°15'1015.0
2018-Feb-16 14:50N 34°07' E 139°03'617.8
2018-Feb-16 14:29N 34°10' E 138°56'918.0
2018-Feb-16 14:00N 34°14' E 138°47'917.5
2018-Feb-16 13:30N 34°16' E 138°37'918.3
2018-Feb-16 13:00N 34°16' E 138°26'918.1
2018-Feb-16 12:30N 34°16' E 138°15'917.7
2018-Feb-16 12:00N 34°18' E 138°04'816.9
2018-Feb-16 11:30N 34°20' E 137°55'816.4
2018-Feb-16 11:00N 34°22' E 137°45'916.4
2018-Feb-16 10:27N 34°24' E 137°34'716.2
2018-Feb-16 09:59N 34°26' E 137°26'816.5
2018-Feb-16 09:30N 34°28' E 137°16'816.3
2018-Feb-16 09:00N 34°30' E 137°07'611.1
2018-Feb-16 08:30N 34°33' E 137°01'5 9.1
2018-Feb-16 07:58N 34°38' E 136°59'511.5
2018-Feb-16 07:30N 34°41' E 137°04'714.5
2018-Feb-16 07:00N 34°44' E 137°12'4 0.2
2018-Feb-15 07:17N 34°48' E 137°13'3 9.1
2018-Feb-15 06:58N 34°45' E 137°12'511.4
2018-Feb-15 06:30N 34°42' E 137°07'816.1
2018-Feb-15 06:00N 34°39' E 136°58'917.6
2018-Feb-15 05:30N 34°43' E 136°48'917.2
2018-Feb-15 05:00N 34°51' E 136°45'714.5
2018-Feb-15 04:30N 34°58' E 136°48'510.0
2018-Feb-15 04:00N 35°02' E 136°51'0 0.7
2018-Feb-15 03:27N 35°02' E 136°51'0 0.0
2018-Feb-15 02:57N 35°02' E 136°51'0 0.0
2018-Feb-15 02:30N 35°02' E 136°51'0 0.0
2018-Feb-15 01:57N 35°02' E 136°51'0 0.0
2018-Feb-15 01:30N 35°02' E 136°51'0 0.0
2018-Feb-15 01:00N 35°02' E 136°51'0 0.0
2018-Feb-15 00:30N 35°02' E 136°51'0 0.0
2018-Feb-15 00:00N 35°02' E 136°51'0 0.0
2018-Feb-14 23:27N 35°02' E 136°51'0 0.0
2018-Feb-14 22:57N 35°02' E 136°51'0 0.0
2018-Feb-14 22:27N 35°02' E 136°51'0 0.0
2018-Feb-14 21:57N 35°02' E 136°51'0 0.0
2018-Feb-14 21:27N 35°02' E 136°51'0 0.0
2018-Feb-14 20:57N 35°02' E 136°51'0 0.0
2018-Feb-14 20:27N 35°02' E 136°51'0 0.0
2018-Feb-14 19:57N 35°02' E 136°51'0 0.0
2018-Feb-14 19:27N 35°02' E 136°51'0 0.0
2018-Feb-14 18:57N 35°02' E 136°51'0 0.0
2018-Feb-14 18:27N 35°02' E 136°51'0 0.0
2018-Feb-14 17:57N 35°02' E 136°51'0 0.0
2018-Feb-14 17:27N 35°02' E 136°51'0 0.0
2018-Feb-14 16:57N 35°02' E 136°51'0 0.0
2018-Feb-14 16:27N 35°02' E 136°51'0 0.0
2018-Feb-14 15:57N 35°02' E 136°51'0 0.0
2018-Feb-14 15:27N 35°02' E 136°51'0 0.0
2018-Feb-14 14:57N 35°02' E 136°51'0 0.0
2018-Feb-14 14:15N 35°02' E 136°51'0 0.0
2018-Feb-14 14:00N 35°02' E 136°51'0 0.0
2018-Feb-14 13:27N 35°02' E 136°51'0 0.0
2018-Feb-14 12:57N 35°02' E 136°51'0 0.0
2018-Feb-14 12:27N 35°02' E 136°51'0 0.0
2018-Feb-14 11:57N 35°02' E 136°51'0 0.0
2018-Feb-14 11:27N 35°02' E 136°51'0 0.0
2018-Feb-14 11:00N 35°02' E 136°51'0 0.0
2018-Feb-14 10:27N 35°02' E 136°51'0 0.0
2018-Feb-14 09:57N 35°02' E 136°51'0 0.0
2018-Feb-14 09:27N 35°02' E 136°51'0 0.0
2018-Feb-14 08:57N 35°02' E 136°51'0 0.0
2018-Feb-14 08:27N 35°02' E 136°51'0 0.0
2018-Feb-14 07:57N 35°02' E 136°51'0 0.0
2018-Feb-14 07:29N 35°02' E 136°51'0 0.0
2018-Feb-14 06:59N 35°02' E 136°51'0 0.0
2018-Feb-14 06:30N 35°02' E 136°51'0 0.0
2018-Feb-14 06:00N 35°02' E 136°51'2 3.5
2018-Feb-14 05:31N 35°01' E 136°50'611.8
2018-Feb-14 05:00N 34°56' E 136°46'713.5
2018-Feb-14 04:31N 34°49' E 136°46'917.6
2018-Feb-14 04:00N 34°41' E 136°51'816.5
2018-Feb-14 03:30N 34°35' E 136°58'  

Dump ship's entire track history